createdAt,value
2022-09-28T00:02:25.484Z,99795.97
2022-09-28T00:04:51.981Z,99792.63
2022-09-28T00:07:18.385Z,99788.56
2022-09-28T00:09:44.744Z,99796.25
2022-09-28T00:12:11.742Z,99799.72
2022-09-28T00:14:40.462Z,99790.53
2022-09-28T00:17:08.217Z,99790.56
2022-09-28T00:19:34.692Z,99790.72
2022-09-28T00:22:01.088Z,99789.97
2022-09-28T00:24:28.767Z,99794.31
2022-09-28T00:26:56.701Z,99792.56
2022-09-28T00:29:27.666Z,99790.91
2022-09-28T00:31:59.820Z,99802.00
2022-09-28T00:34:27.283Z,99797.03
2022-09-28T00:36:53.711Z,99789.44
2022-09-28T00:39:20.150Z,99794.59
2022-09-28T00:41:46.811Z,99798.00
2022-09-28T00:44:25.107Z,99789.59
2022-09-28T00:47:26.750Z,99787.13
2022-09-28T00:50:02.770Z,99784.66
2022-09-28T00:52:38.832Z,99786.31
2022-09-28T00:55:09.948Z,99780.38
2022-09-28T00:57:39.014Z,99787.13
2022-09-28T01:00:06.246Z,99778.63
2022-09-28T01:02:32.762Z,99782.94
2022-09-28T01:05:00.468Z,99772.81
2022-09-28T01:07:27.141Z,99777.88
2022-09-28T01:09:54.538Z,99777.06
2022-09-28T01:12:20.941Z,99773.66
2022-09-28T01:14:49.144Z,99769.50
2022-09-28T01:17:20.806Z,99766.97
2022-09-28T01:20:07.342Z,99766.91
2022-09-28T01:22:36.402Z,99770.25
2022-09-28T01:25:17.961Z,99766.03
2022-09-28T01:28:11.130Z,99770.25
2022-09-28T01:30:46.950Z,99768.50
2022-09-28T01:33:22.461Z,99767.59
2022-09-28T01:36:27.118Z,99766.84
2022-09-28T01:38:59.743Z,99766.84
2022-09-28T01:41:30.214Z,99772.69
2022-09-28T01:44:02.802Z,99770.06
2022-09-28T01:46:37.913Z,99765.75
2022-09-28T01:49:28.219Z,99765.75
2022-09-28T01:52:16.871Z,99765.13
2022-09-28T01:54:50.530Z,99763.59
2022-09-28T01:57:29.672Z,99767.91
2022-09-28T02:00:01.153Z,99767.91
2022-09-28T02:02:35.180Z,99766.31
2022-09-28T02:05:11.207Z,99761.41
2022-09-28T02:07:45.330Z,99763.09
2022-09-28T02:10:22.337Z,99764.00
2022-09-28T02:12:59.670Z,99758.97
2022-09-28T02:15:54.426Z,99760.75
2022-09-28T02:18:21.057Z,99756.59
2022-09-28T02:20:56.726Z,99758.25
2022-09-28T02:23:25.491Z,99759.97
2022-09-28T02:26:00.917Z,99760.00
2022-09-28T02:28:27.578Z,99760.81
2022-09-28T02:30:55.034Z,99758.28
2022-09-28T02:33:31.952Z,99763.38
2022-09-28T02:36:00.605Z,99759.13
2022-09-28T02:38:27.258Z,99763.38
2022-09-28T02:41:05.320Z,99760.81
2022-09-28T02:43:43.814Z,99759.91
2022-09-28T02:46:21.449Z,99760.81
2022-09-28T02:49:23.569Z,99777.00
2022-09-28T02:51:58.248Z,99767.75
2022-09-28T02:54:59.306Z,99774.53
2022-09-28T02:57:40.660Z,99771.97
2022-09-28T03:00:17.566Z,99774.53
2022-09-28T03:03:04.145Z,99777.91
2022-09-28T03:05:41.490Z,99779.66
2022-09-28T03:08:56.105Z,99779.66
2022-09-28T03:11:29.204Z,99776.28
2022-09-28T03:13:56.309Z,99773.81
2022-09-28T03:16:22.815Z,99780.56
2022-09-28T03:18:49.485Z,99780.56
2022-09-28T03:21:16.478Z,99777.25
2022-09-28T03:23:43.541Z,99777.28
2022-09-28T03:26:13.830Z,99784.97
2022-09-28T03:28:40.779Z,99790.09
2022-09-28T03:31:07.409Z,99790.16
2022-09-28T03:33:34.155Z,99789.41
2022-09-28T03:36:00.850Z,99784.31
2022-09-28T03:38:27.542Z,99782.63
2022-09-28T03:40:56.546Z,99783.44
2022-09-28T03:43:24.061Z,99794.44
2022-09-28T03:46:01.357Z,99784.25
2022-09-28T03:48:32.350Z,99779.22
2022-09-28T03:51:01.769Z,99780.09
2022-09-28T03:53:29.707Z,99775.00
2022-09-28T03:55:56.739Z,99773.38
2022-09-28T03:58:23.379Z,99775.13
2022-09-28T04:00:50.350Z,99769.22
2022-09-28T04:03:16.882Z,99772.66
2022-09-28T04:05:51.356Z,99771.97
2022-09-28T04:08:18.496Z,99766.94
2022-09-28T04:10:45.111Z,99773.75
2022-09-28T04:13:11.757Z,99768.72
2022-09-28T04:15:38.532Z,99771.31
2022-09-28T04:18:14.095Z,99772.28
2022-09-28T04:20:41.479Z,99774.13
2022-09-28T04:23:07.890Z,99781.78
2022-09-28T04:25:34.241Z,99788.66
2022-09-28T04:28:19.113Z,99794.66
2022-09-28T04:30:47.534Z,99788.88
2022-09-28T04:33:14.009Z,99789.00
2022-09-28T04:35:40.533Z,99784.06
2022-09-28T04:38:07.041Z,99788.31
2022-09-28T04:40:33.453Z,99791.72
2022-09-28T04:42:59.877Z,99790.91
2022-09-28T04:45:26.920Z,99785.88
2022-09-28T04:47:54.544Z,99780.03
2022-09-28T04:50:20.934Z,99784.34
2022-09-28T04:52:47.348Z,99785.25
2022-09-28T04:55:14.466Z,99788.66
2022-09-28T04:57:41.271Z,99790.38
2022-09-28T05:00:08.974Z,99792.03
2022-09-28T05:02:35.563Z,99792.94
2022-09-28T05:05:02.159Z,99792.13
2022-09-28T05:07:29.330Z,99783.78
2022-09-28T05:09:55.854Z,99792.34
2022-09-28T05:12:22.278Z,99799.94
2022-09-28T05:14:48.662Z,99794.75
2022-09-28T05:17:15.393Z,99805.81
2022-09-28T05:19:41.744Z,99793.97
2022-09-28T05:22:11.407Z,99801.50
2022-09-28T05:24:37.873Z,99798.97
2022-09-28T05:27:05.041Z,99802.34
2022-09-28T05:29:32.363Z,99805.81
2022-09-28T05:32:01.458Z,99804.09
2022-09-28T05:34:28.188Z,99805.75
2022-09-28T05:36:54.606Z,99801.47
2022-09-28T05:39:21.042Z,99797.19
2022-09-28T05:41:48.175Z,99803.91
2022-09-28T05:44:14.693Z,99806.34
2022-09-28T05:46:41.179Z,99802.94
2022-09-28T05:49:07.961Z,99803.75
2022-09-28T05:51:34.346Z,99806.25
2022-09-28T05:54:13.396Z,99812.94
2022-09-28T05:56:39.818Z,99812.03
2022-09-28T05:59:06.499Z,99812.75
2022-09-28T06:01:41.922Z,99812.72
2022-09-28T06:04:08.939Z,99812.63
2022-09-28T06:06:36.544Z,99817.59
2022-09-28T06:09:03.313Z,99816.66
2022-09-28T06:11:33.068Z,99815.66
2022-09-28T06:14:00.408Z,99814.63
2022-09-28T06:16:26.846Z,99814.56
2022-09-28T06:18:53.402Z,99811.00
2022-09-28T06:21:22.027Z,99815.13
2022-09-28T06:23:49.493Z,99810.75
2022-09-28T06:26:16.863Z,99813.13
2022-09-28T06:28:44.536Z,99811.19
2022-09-28T06:31:11.001Z,99822.06
2022-09-28T06:33:38.548Z,99826.09
2022-09-28T06:36:05.035Z,99820.81
2022-09-28T06:38:31.849Z,99824.78
2022-09-28T06:40:58.887Z,99818.69
2022-09-28T06:43:25.670Z,99822.75
2022-09-28T06:45:53.706Z,99830.13
2022-09-28T06:48:20.406Z,99829.88
2022-09-28T06:50:47.530Z,99827.91
2022-09-28T06:53:14.858Z,99829.41
2022-09-28T06:55:43.103Z,99835.09
2022-09-28T06:58:11.787Z,99836.47
2022-09-28T07:00:39.411Z,99832.81
2022-09-28T07:03:08.366Z,99828.28
2022-09-28T07:05:36.816Z,99830.53
2022-09-28T07:08:06.150Z,99835.38
2022-09-28T07:10:32.861Z,99836.78
2022-09-28T07:13:04.825Z,99844.13
2022-09-28T07:15:32.521Z,99839.53
2022-09-28T07:18:04.367Z,99847.72
2022-09-28T07:20:38.498Z,99856.72
2022-09-28T07:23:18.612Z,99861.44
2022-09-28T07:25:47.815Z,99855.19
2022-09-28T07:28:15.310Z,99866.72
2022-09-28T07:30:44.236Z,99858.78
2022-09-28T07:33:12.895Z,99870.34
2022-09-28T07:35:41.681Z,99858.19
2022-09-28T07:38:09.994Z,99866.34
2022-09-28T07:40:55.534Z,99872.84
2022-09-28T07:43:22.517Z,99876.66
2022-09-28T07:45:51.100Z,99880.59
2022-09-28T07:48:18.699Z,99874.34
2022-09-28T07:50:57.208Z,99876.53
2022-09-28T07:53:25.154Z,99879.50
2022-09-28T07:55:56.836Z,99880.91
2022-09-28T07:58:23.377Z,99881.47
2022-09-28T08:00:50.462Z,99878.53
2022-09-28T08:03:18.935Z,99885.75
2022-09-28T08:05:46.738Z,99884.59
2022-09-28T08:08:14.417Z,99880.84
2022-09-28T08:10:47.126Z,99891.50
2022-09-28T08:13:15.053Z,99892.03
2022-09-28T08:15:42.473Z,99894.19
2022-09-28T08:18:10.212Z,99897.25
2022-09-28T08:20:55.171Z,99894.53
2022-09-28T08:23:23.236Z,99895.09
2022-09-28T08:25:53.844Z,99895.44
2022-09-28T08:28:22.505Z,99899.25
2022-09-28T08:30:50.101Z,99903.72
2022-09-28T08:33:18.523Z,99910.25
2022-09-28T08:35:46.939Z,99907.28
2022-09-28T08:38:13.926Z,99905.97
2022-09-28T08:41:19.100Z,99910.66
2022-09-28T08:43:54.378Z,99912.84
2022-09-28T08:46:27.064Z,99910.69
2022-09-28T08:49:23.655Z,99916.13
2022-09-28T08:52:00.210Z,99920.16
2022-09-28T08:54:48.805Z,99924.84
2022-09-28T08:57:27.155Z,99921.81
2022-09-28T08:59:59.740Z,99918.03
2022-09-28T09:02:33.552Z,99920.06
2022-09-28T09:05:06.210Z,99924.75
2022-09-28T09:07:51.746Z,99924.63
2022-09-28T09:10:58.254Z,99929.25
2022-09-28T09:13:48.646Z,99934.34
2022-09-28T09:16:24.232Z,99930.75
2022-09-28T09:18:55.489Z,99929.28
2022-09-28T09:21:39.297Z,99934.63
2022-09-28T09:24:54.797Z,99937.25
2022-09-28T09:27:34.437Z,99946.78
2022-09-28T09:30:12.782Z,99940.44
2022-09-28T09:32:56.799Z,99942.97
2022-09-28T09:35:45.321Z,99946.16
2022-09-28T09:38:30.560Z,99936.97
2022-09-28T09:40:59.640Z,99942.69
2022-09-28T09:43:55.855Z,99944.59
2022-09-28T09:47:02.033Z,99943.91
2022-09-28T09:49:37.471Z,99946.75
2022-09-28T09:52:25.525Z,99942.66
2022-09-28T09:55:10.311Z,99946.44
2022-09-28T09:57:51.389Z,99942.19
2022-09-28T10:00:18.551Z,99946.97
2022-09-28T10:02:48.530Z,99938.53
2022-09-28T10:05:23.937Z,99938.72
2022-09-28T10:08:08.966Z,99938.22
2022-09-28T10:10:38.365Z,99938.66
2022-09-28T10:13:05.189Z,99937.25
2022-09-28T10:15:33.458Z,99943.09
2022-09-28T10:18:05.898Z,99940.88
2022-09-28T10:20:37.325Z,99941.97
2022-09-28T10:23:06.697Z,99952.75
2022-09-28T10:25:37.490Z,99937.63
2022-09-28T10:28:06.808Z,99946.09
2022-09-28T10:30:44.096Z,99945.38
2022-09-28T10:33:32.332Z,99940.16
2022-09-28T10:36:06.852Z,99939.25
2022-09-28T10:38:34.126Z,99945.47
2022-09-28T10:41:09.711Z,99941.69
2022-09-28T10:43:51.283Z,99945.03
2022-09-28T10:46:23.776Z,99949.28
2022-09-28T10:49:06.871Z,99947.25
2022-09-28T10:51:40.340Z,99958.78
2022-09-28T10:54:15.472Z,99938.44
2022-09-28T10:56:42.336Z,99940.53
2022-09-28T10:59:37.007Z,99939.13
2022-09-28T11:02:21.583Z,99935.47
2022-09-28T11:04:54.765Z,99944.81
2022-09-28T11:07:28.265Z,99943.75
2022-09-28T11:09:55.427Z,99938.22
2022-09-28T11:12:26.090Z,99948.50
2022-09-28T11:15:01.871Z,99940.97
2022-09-28T11:17:38.747Z,99934.09
2022-09-28T11:20:29.634Z,99944.78
2022-09-28T11:23:01.510Z,99942.81
2022-09-28T11:25:30.169Z,99936.75
2022-09-28T11:28:00.606Z,99944.38
2022-09-28T11:30:38.246Z,99944.28
2022-09-28T11:33:26.233Z,99942.78
2022-09-28T11:36:04.654Z,99937.69
2022-09-28T11:38:54.945Z,99932.09
2022-09-28T11:41:37.550Z,99933.63
2022-09-28T11:44:35.009Z,99919.97
2022-09-28T11:47:32.746Z,99927.53
2022-09-28T11:50:24.125Z,99924.66
2022-09-28T11:53:03.013Z,99940.97
2022-09-28T11:55:40.505Z,99944.50
2022-09-28T11:58:22.504Z,99935.53
2022-09-28T12:01:02.632Z,99944.47
2022-09-28T12:03:39.471Z,99943.00
2022-09-28T12:06:11.012Z,99949.50
2022-09-28T12:08:47.484Z,99951.44
2022-09-28T12:11:38.864Z,99942.09
2022-09-28T12:14:10.249Z,99943.28
2022-09-28T12:17:05.305Z,99942.63
2022-09-28T12:19:39.465Z,99941.47
2022-09-28T12:22:22.980Z,99944.84
2022-09-28T12:24:52.807Z,99946.00
2022-09-28T12:27:28.486Z,99953.06
2022-09-28T12:30:16.888Z,99956.47
2022-09-28T12:32:46.474Z,99971.63
2022-09-28T12:35:16.108Z,99964.94
2022-09-28T12:38:24.026Z,99967.94
2022-09-28T12:41:03.213Z,99971.34
2022-09-28T12:44:07.132Z,99986.88
2022-09-28T12:47:05.423Z,99987.56
2022-09-28T12:50:36.930Z,99985.47
2022-09-28T12:52:50.726Z,99981.97
2022-09-28T12:55:46.792Z,99977.00
2022-09-28T12:58:37.345Z,99977.19
2022-09-28T13:01:19.866Z,99979.47
2022-09-28T13:04:04.574Z,99968.81
2022-09-28T13:07:03.632Z,99968.97
2022-09-28T13:09:40.918Z,99967.81
2022-09-28T13:12:21.849Z,99969.56
2022-09-28T13:14:57.339Z,99972.13
2022-09-28T13:17:47.233Z,99979.00
2022-09-28T13:20:39.580Z,99971.00
2022-09-28T13:23:29.578Z,99978.13
2022-09-28T13:26:28.220Z,99982.06
2022-09-28T13:29:03.502Z,99979.81
2022-09-28T13:31:34.945Z,99984.91
2022-09-28T13:34:05.003Z,99983.38
2022-09-28T13:36:31.332Z,99977.50
2022-09-28T13:38:59.546Z,99986.31
2022-09-28T13:41:32.086Z,99982.88
2022-09-28T13:44:21.281Z,99981.88
2022-09-28T13:47:26.971Z,99978.88
2022-09-28T13:50:05.402Z,99970.81
2022-09-28T13:52:57.896Z,99971.81
2022-09-28T13:55:56.659Z,99965.75
2022-09-28T13:58:38.279Z,99969.28
2022-09-28T14:01:16.061Z,99960.47
2022-09-28T14:04:10.597Z,99959.34
2022-09-28T14:06:44.118Z,99964.91
2022-09-28T14:09:14.092Z,99969.72
2022-09-28T14:11:44.024Z,99976.78
2022-09-28T14:14:14.165Z,99989.97
2022-09-28T14:16:42.162Z,99980.31
2022-09-28T14:19:24.246Z,99978.47
2022-09-28T14:22:12.346Z,99972.38
2022-09-28T14:25:06.467Z,99982.00
2022-09-28T14:27:35.929Z,99980.25
2022-09-28T14:30:24.280Z,99982.13
2022-09-28T14:32:56.867Z,99989.47
2022-09-28T14:35:45.058Z,99991.03
2022-09-28T14:38:40.714Z,100000.81
2022-09-28T14:41:16.076Z,99999.88
2022-09-28T14:43:45.541Z,99998.16
2022-09-28T14:46:12.795Z,100010.22
2022-09-28T14:48:52.680Z,100004.72
2022-09-28T14:51:42.082Z,100005.75
2022-09-28T14:54:10.455Z,99998.53
2022-09-28T14:57:09.247Z,100009.59
2022-09-28T14:59:44.173Z,100004.16
2022-09-28T15:02:10.491Z,100006.75
2022-09-28T15:04:43.392Z,100004.66
2022-09-28T15:07:25.096Z,100005.78
2022-09-28T15:09:54.023Z,100014.69
2022-09-28T15:12:25.104Z,100012.28
2022-09-28T15:15:02.154Z,100018.31
2022-09-28T15:17:37.048Z,100017.41
2022-09-28T15:20:36.891Z,100020.06
2022-09-28T15:23:03.451Z,100022.63
2022-09-28T15:25:32.596Z,100029.47
2022-09-28T15:28:18.095Z,100027.19
2022-09-28T15:30:45.667Z,100025.38
2022-09-28T15:33:43.024Z,100022.31
2022-09-28T15:36:16.621Z,100019.91
2022-09-28T15:38:45.541Z,100022.31
2022-09-28T15:41:12.039Z,100030.22
2022-09-28T15:43:38.530Z,100032.91
2022-09-28T15:46:18.790Z,100039.72
2022-09-28T15:48:59.480Z,100032.25
2022-09-28T15:51:27.423Z,100033.97
2022-09-28T15:54:02.949Z,100028.91
2022-09-28T15:56:30.188Z,100027.34
2022-09-28T15:59:15.066Z,100029.63
2022-09-28T16:01:45.198Z,100036.63
2022-09-28T16:04:48.014Z,100032.09
2022-09-28T16:07:55.882Z,100038.72
2022-09-28T16:10:33.434Z,100036.84
2022-09-28T16:13:11.928Z,100031.34
2022-09-28T16:15:39.376Z,100029.72
2022-09-28T16:18:20.608Z,100035.69
2022-09-28T16:20:51.215Z,100027.91
2022-09-28T16:23:24.871Z,100029.81
2022-09-28T16:25:54.552Z,100026.88
2022-09-28T16:28:48.689Z,100029.81
2022-09-28T16:31:15.088Z,100031.63
2022-09-28T16:33:52.185Z,100031.25
2022-09-28T16:36:18.512Z,100034.06
2022-09-28T16:38:46.001Z,100035.84
2022-09-28T16:41:14.141Z,100045.91
2022-09-28T16:43:40.678Z,100042.88
2022-09-28T16:46:10.348Z,100042.13
2022-09-28T16:48:41.205Z,100046.91
2022-09-28T16:51:07.488Z,100045.31
2022-09-28T16:53:57.101Z,100047.34
2022-09-28T16:56:23.464Z,100056.97
2022-09-28T16:58:50.630Z,100057.22
2022-09-28T17:01:17.101Z,100055.81
2022-09-28T17:03:46.747Z,100057.78
2022-09-28T17:06:14.870Z,100058.97
2022-09-28T17:08:41.572Z,100063.59
2022-09-28T17:11:16.983Z,100068.88
2022-09-28T17:13:47.078Z,100071.00
2022-09-28T17:16:21.010Z,100068.94
2022-09-28T17:18:53.830Z,100066.63
2022-09-28T17:21:20.646Z,100081.34
2022-09-28T17:23:49.281Z,100078.25
2022-09-28T17:26:27.183Z,100080.47
2022-09-28T17:28:54.050Z,100084.88
2022-09-28T17:31:20.502Z,100086.88
2022-09-28T17:33:47.054Z,100085.44
2022-09-28T17:36:16.185Z,100086.69
2022-09-28T17:38:43.710Z,100083.34
2022-09-28T17:41:20.689Z,100091.16
2022-09-28T17:43:47.905Z,100088.84
2022-09-28T17:46:30.669Z,100093.31
2022-09-28T17:49:01.852Z,100096.00
2022-09-28T17:51:30.286Z,100097.03
2022-09-28T17:54:01.174Z,100090.44
2022-09-28T17:56:32.090Z,100092.44
2022-09-28T17:59:05.507Z,100098.84
2022-09-28T18:01:36.491Z,100088.91
2022-09-28T18:04:05.020Z,100097.88
2022-09-28T18:06:34.309Z,100104.09
2022-09-28T18:09:04.768Z,100098.31
2022-09-28T18:11:32.340Z,100103.69
2022-09-28T18:13:58.801Z,100103.91
2022-09-28T18:16:27.874Z,100109.97
2022-09-28T18:18:54.765Z,100102.50
2022-09-28T18:21:21.207Z,100106.09
2022-09-28T18:23:47.570Z,100106.28
2022-09-28T18:26:15.927Z,100102.19
2022-09-28T18:28:42.480Z,100099.72
2022-09-28T18:31:10.361Z,100109.25
2022-09-28T18:33:52.681Z,100102.72
2022-09-28T18:36:19.076Z,100110.59
2022-09-28T18:38:46.734Z,100101.50
2022-09-28T18:41:15.781Z,100112.59
2022-09-28T18:43:43.432Z,100110.91
2022-09-28T18:46:11.600Z,100109.97
2022-09-28T18:48:40.475Z,100110.91
2022-09-28T18:51:11.713Z,100109.16
2022-09-28T18:53:39.257Z,100107.59
2022-09-28T18:56:08.065Z,100110.22
2022-09-28T18:58:38.786Z,100112.72
2022-09-28T19:01:28.863Z,100114.28
2022-09-28T19:03:56.329Z,100106.56
2022-09-28T19:06:22.700Z,100102.25
2022-09-28T19:08:55.434Z,100111.72
2022-09-28T19:11:22.589Z,100110.09
2022-09-28T19:13:48.958Z,100108.56
2022-09-28T19:16:24.248Z,100112.88
2022-09-28T19:18:53.631Z,100106.06
2022-09-28T19:21:20.636Z,100111.09
2022-09-28T19:23:49.734Z,100112.81
2022-09-28T19:26:25.467Z,100115.34
2022-09-28T19:28:52.990Z,100116.34
2022-09-28T19:31:20.274Z,100117.22
2022-09-28T19:33:47.158Z,100111.44
2022-09-28T19:36:24.872Z,100127.00
2022-09-28T19:38:56.294Z,100123.09
2022-09-28T19:42:06.177Z,100122.34
2022-09-28T19:44:33.382Z,100125.75
2022-09-28T19:47:06.506Z,100129.25
2022-09-28T19:49:36.962Z,100123.25
2022-09-28T19:52:15.347Z,100131.91
2022-09-28T19:54:44.370Z,100131.84
2022-09-28T19:57:12.110Z,100134.41
2022-09-28T19:59:38.980Z,100132.78
2022-09-28T20:02:07.418Z,100141.44
2022-09-28T20:04:34.263Z,100144.13
2022-09-28T20:07:01.415Z,100142.44
2022-09-28T20:09:27.820Z,100143.34
2022-09-28T20:11:54.294Z,100151.03
2022-09-28T20:14:22.454Z,100151.19
2022-09-28T20:16:51.024Z,100152.09
2022-09-28T20:19:21.022Z,100154.69
2022-09-28T20:21:48.340Z,100158.13
2022-09-28T20:24:16.518Z,100156.63
2022-09-28T20:26:44.315Z,100162.72
2022-09-28T20:29:11.157Z,100161.22
2022-09-28T20:31:37.945Z,100163.88
2022-09-28T20:34:05.915Z,100163.13
2022-09-28T20:36:32.607Z,100163.28
2022-09-28T20:39:02.935Z,100158.25
2022-09-28T20:41:35.556Z,100161.66
2022-09-28T20:44:05.758Z,100168.41
2022-09-28T20:46:34.054Z,100167.59
2022-09-28T20:49:02.147Z,100164.34
2022-09-28T20:51:28.680Z,100163.59
2022-09-28T20:53:57.665Z,100161.31
2022-09-28T20:56:26.443Z,100169.88
2022-09-28T20:58:54.746Z,100159.84
2022-09-28T21:01:30.444Z,100164.19
2022-09-28T21:04:01.757Z,100168.53
2022-09-28T21:06:33.702Z,100165.22
2022-09-28T21:09:00.725Z,100165.25
2022-09-28T21:11:29.635Z,100174.69
2022-09-28T21:13:58.839Z,100174.88
2022-09-28T21:16:27.120Z,100172.41
2022-09-28T21:18:55.056Z,100176.81
2022-09-28T21:21:22.539Z,100178.75
2022-09-28T21:23:52.540Z,100181.50
2022-09-28T21:26:26.782Z,100182.41
2022-09-28T21:28:54.329Z,100184.19
2022-09-28T21:31:27.572Z,100183.41
2022-09-28T21:33:55.689Z,100191.94
2022-09-28T21:36:22.133Z,100189.44
2022-09-28T21:38:49.289Z,100187.09
2022-09-28T21:41:16.275Z,100189.69
2022-09-28T21:43:42.741Z,100186.28
2022-09-28T21:46:09.803Z,100191.31
2022-09-28T21:48:36.609Z,100198.13
2022-09-28T21:51:06.520Z,100196.47
2022-09-28T21:53:34.932Z,100201.56
2022-09-28T21:56:02.362Z,100193.22
2022-09-28T21:58:31.481Z,100194.16
2022-09-28T22:01:08.225Z,100189.19
2022-09-28T22:03:36.637Z,100198.56
2022-09-28T22:06:04.086Z,100198.56
2022-09-28T22:08:31.440Z,100203.75
2022-09-28T22:11:05.640Z,100197.16
2022-09-28T22:13:35.712Z,100195.53
2022-09-28T22:16:02.394Z,100204.84
2022-09-28T22:18:31.025Z,100209.16
2022-09-28T22:21:18.445Z,100200.75
2022-09-28T22:23:45.423Z,100208.50
2022-09-28T22:26:25.893Z,100211.25
2022-09-28T22:28:57.936Z,100210.56
2022-09-28T22:31:28.308Z,100211.66
2022-09-28T22:33:55.152Z,100215.13
2022-09-28T22:36:21.586Z,100212.59
2022-09-28T22:38:48.667Z,100212.59
2022-09-28T22:41:17.570Z,100217.00
2022-09-28T22:43:44.299Z,100214.53
2022-09-28T22:46:13.034Z,100223.88
2022-09-28T22:48:40.013Z,100216.25
2022-09-28T22:51:07.179Z,100211.22
2022-09-28T22:53:35.030Z,100218.06
2022-09-28T22:56:05.199Z,100219.75
2022-09-28T22:58:33.626Z,100221.50
2022-09-28T23:01:15.509Z,100220.72
2022-09-28T23:03:42.564Z,100215.72
2022-09-28T23:06:13.133Z,100224.22
2022-09-28T23:08:39.987Z,100217.44
2022-09-28T23:11:06.585Z,100218.44
2022-09-28T23:13:33.327Z,100215.16
2022-09-28T23:16:02.466Z,100220.28
2022-09-28T23:18:31.751Z,100219.53
2022-09-28T23:21:00.886Z,100224.66
2022-09-28T23:23:27.933Z,100219.66
2022-09-28T23:25:55.042Z,100225.63
2022-09-28T23:28:23.577Z,100218.91
2022-09-28T23:30:50.832Z,100229.16
2022-09-28T23:33:18.996Z,100224.09
2022-09-28T23:35:45.770Z,100234.28
2022-09-28T23:38:14.011Z,100230.13
2022-09-28T23:40:41.319Z,100237.94
2022-09-28T23:43:08.453Z,100238.94
2022-09-28T23:45:34.817Z,100245.72
2022-09-28T23:48:02.001Z,100239.00
2022-09-28T23:50:28.590Z,100235.63
2022-09-28T23:52:55.046Z,100233.88
2022-09-28T23:55:21.664Z,100230.50
2022-09-28T23:57:48.176Z,100223.88
